Time;durP1;ratioP1;P1;durP2;ratioP2;P2;SDS_P1;SDS_P2;PMS_P1;PMS_P2;Temp;Humidity;BMP_temperature;BMP_pressure;BME280_temperature;BME280_humidity;BME280_pressure;Samples;Min_cycle;Max_cycle;Signal;HPM_P1;HPM_P2
2022/12/10 00:00:20;;;;;;;10.27;5.17;;;3.00;99.90;4.00;95127.00;;;;5031057;28;20459;-65
2022/12/10 00:03:08;;;;;;;8.93;4.63;;;3.00;99.90;3.80;95122.00;;;;5030459;28;20221;-64
2022/12/10 00:06:01;;;;;;;9.20;4.97;;;3.00;99.90;3.80;95134.00;;;;5024928;28;20962;-65
2022/12/10 00:08:50;;;;;;;7.30;5.13;;;3.00;99.90;3.80;95136.00;;;;5025619;28;20436;-65
2022/12/10 00:11:40;;;;;;;11.43;5.40;;;3.00;99.90;3.90;95139.00;;;;5030665;28;20451;-64
2022/12/10 00:14:30;;;;;;;9.27;6.57;;;3.00;99.90;4.10;95150.00;;;;5030468;28;20213;-65
2022/12/10 00:17:18;;;;;;;8.40;5.83;;;3.00;99.90;4.30;95151.00;;;;5030366;28;20503;-66
2022/12/10 00:20:09;;;;;;;7.17;5.10;;;3.10;99.90;4.20;95157.00;;;;5031386;28;20203;-64
2022/12/10 00:22:58;;;;;;;6.63;4.50;;;3.10;99.90;4.40;95166.00;;;;5017822;28;20604;-65
2022/12/10 00:25:46;;;;;;;5.77;4.23;;;3.10;99.90;4.40;95163.00;;;;5021399;28;20436;-66
2022/12/10 00:28:35;;;;;;;8.90;4.83;;;3.30;99.90;4.40;95165.00;;;;5028891;28;20431;-64
2022/12/10 00:31:29;;;;;;;7.17;4.67;;;3.10;99.90;4.40;95166.00;;;;5029275;28;20205;-65
2022/12/10 00:34:18;;;;;;;6.70;4.10;;;3.20;99.90;4.20;95164.00;;;;5035412;28;20432;-64
2022/12/10 00:37:06;;;;;;;5.93;4.60;;;3.20;99.90;4.20;95168.00;;;;5019620;28;20227;-65
2022/12/10 00:39:55;;;;;;;8.33;4.70;;;3.20;99.90;4.40;95165.00;;;;5028918;28;20205;-65
2022/12/10 00:42:44;;;;;;;5.80;4.07;;;3.10;99.90;4.30;95168.00;;;;5029246;28;20677;-64
2022/12/10 00:45:32;;;;;;;7.27;4.23;;;3.10;99.90;4.20;95172.00;;;;5030598;28;20939;-66
2022/12/10 00:48:24;;;;;;;8.50;4.50;;;3.10;99.90;4.30;95176.00;;;;5028805;28;20441;-66
2022/12/10 00:51:16;;;;;;;6.30;4.13;;;3.10;99.90;4.40;95176.00;;;;5024646;28;20443;-66
2022/12/10 00:54:05;;;;;;;5.07;3.77;;;3.10;99.90;4.30;95181.00;;;;5029920;28;20435;-65
2022/12/10 00:56:53;;;;;;;6.77;4.80;;;3.10;99.90;4.00;95186.00;;;;5029867;28;20695;-66
2022/12/10 00:59:42;;;;;;;5.50;4.37;;;3.00;99.90;3.80;95188.00;;;;5016645;28;20204;-64
2022/12/10 01:02:31;;;;;;;4.40;4.00;;;3.00;99.90;3.90;95198.00;;;;5030081;28;20439;-65
2022/12/10 01:05:21;;;;;;;5.40;4.03;;;2.90;99.90;4.20;95198.00;;;;5025012;28;20229;-65
2022/12/10 01:08:10;;;;;;;7.60;4.70;;;2.90;99.90;4.20;95192.00;;;;5019162;28;20223;-65
2022/12/10 01:10:59;;;;;;;4.10;3.57;;;3.00;99.90;4.00;95197.00;;;;5029061;28;20939;-65
2022/12/10 01:13:49;;;;;;;9.63;4.10;;;2.90;99.90;4.10;95194.00;;;;5030342;28;20447;-65
2022/12/10 01:16:38;;;;;;;4.77;3.70;;;3.00;99.90;3.90;95193.00;;;;5030669;28;20732;-65
2022/12/10 01:19:27;;;;;;;4.63;3.67;;;2.90;99.90;3.90;95208.00;;;;5028500;28;20420;-65
2022/12/10 01:22:17;;;;;;;4.70;3.70;;;2.90;99.90;3.80;95215.00;;;;5028305;28;20440;-66
2022/12/10 01:25:07;;;;;;;4.13;3.70;;;2.90;99.90;3.80;95213.00;;;;5029671;28;20476;-65
2022/12/10 01:27:55;;;;;;;5.30;4.03;;;2.80;99.90;3.80;95231.00;;;;5021582;28;20221;-65
2022/12/10 01:30:44;;;;;;;6.83;4.90;;;2.80;99.90;3.90;95233.00;;;;5024919;28;20429;-66
2022/12/10 01:33:33;;;;;;;5.07;3.83;;;2.80;99.90;4.00;95237.00;;;;5022440;28;20436;-65
2022/12/10 01:36:24;;;;;;;6.60;3.97;;;2.80;99.90;3.80;95245.00;;;;5035277;28;20451;-65
2022/12/10 01:39:18;;;;;;;4.53;4.07;;;2.80;99.90;3.60;95239.00;;;;5028575;28;20267;-65
2022/12/10 01:42:07;;;;;;;7.07;4.93;;;2.90;99.90;3.70;95258.00;;;;5029229;28;20421;-65
2022/12/10 01:45:06;;;;;;;4.60;4.13;;;2.70;99.90;3.90;95258.00;;;;5031785;28;20225;-64
2022/12/10 01:47:55;;;;;;;7.83;4.60;;;2.60;99.90;3.70;95261.00;;;;5020157;28;20468;-65
2022/12/10 01:50:43;;;;;;;6.83;4.30;;;2.60;99.90;3.60;95263.00;;;;5032519;28;20420;-64
2022/12/10 01:53:33;;;;;;;5.33;4.00;;;2.60;99.90;3.80;95269.00;;;;5021129;28;20435;-65
2022/12/10 01:56:24;;;;;;;6.27;4.07;;;2.60;99.90;3.80;95258.00;;;;5017019;28;20447;-65
2022/12/10 01:59:14;;;;;;;5.40;3.63;;;2.60;99.90;3.60;95258.00;;;;5028619;28;20205;-65
2022/12/10 02:02:12;;;;;;;4.30;3.90;;;2.60;99.90;3.60;95252.00;;;;5033416;28;20451;-65
2022/12/10 02:05:13;;;;;;;5.33;4.13;;;2.60;99.90;3.40;95262.00;;;;5019503;28;20484;-66
2022/12/10 02:08:10;;;;;;;3.73;3.23;;;2.50;99.90;3.70;95252.00;;;;5031441;28;20541;-66
2022/12/10 02:11:09;;;;;;;4.73;3.97;;;2.50;99.90;3.60;95263.00;;;;5033978;28;20943;-65
2022/12/10 02:14:05;;;;;;;5.50;4.10;;;2.50;99.90;3.40;95256.00;;;;5032234;28;20974;-65
2022/12/10 02:16:59;;;;;;;4.67;4.20;;;3.30;99.90;3.50;95241.00;;;;5033181;28;20444;-66
2022/12/10 02:20:03;;;;;;;5.33;3.40;;;2.50;99.90;3.80;95243.00;;;;5032120;28;20440;-64
2022/12/10 02:22:58;;;;;;;5.40;3.73;;;2.50;99.90;3.80;95248.00;;;;5025590;28;20820;-66
2022/12/10 02:25:51;;;;;;;13.17;4.27;;;2.50;99.90;3.80;95258.00;;;;5023217;28;20983;-65
2022/12/10 02:28:53;;;;;;;3.73;3.37;;;2.50;99.90;3.80;95242.00;;;;5025120;28;20417;-65
2022/12/10 02:31:48;;;;;;;5.87;4.07;;;2.50;99.90;3.80;95231.00;;;;5033088;28;20419;-66
2022/12/10 02:34:42;;;;;;;7.50;4.03;;;2.50;99.90;3.70;95242.00;;;;5028901;28;20428;-65
2022/12/10 02:37:33;;;;;;;5.37;3.50;;;2.50;99.90;3.30;95263.00;;;;5023973;28;20447;-65
2022/12/10 02:40:30;;;;;;;4.87;3.83;;;2.40;99.90;3.30;95257.00;;;;5032533;28;20446;-65
2022/12/10 02:43:19;;;;;;;6.10;4.23;;;2.40;99.90;3.60;95253.00;;;;5019269;28;20420;-65
2022/12/10 02:46:08;;;;;;;7.33;4.40;;;2.40;99.90;3.70;95265.00;;;;5040533;28;20963;-65
2022/12/10 02:49:01;;;;;;;6.60;3.67;;;2.40;99.90;3.40;95273.00;;;;5022841;28;20429;-65
2022/12/10 02:51:49;;;;;;;6.00;3.97;;;2.40;99.90;3.30;95277.00;;;;5033174;28;20425;-66
2022/12/10 02:54:42;;;;;;;8.10;4.13;;;2.30;99.90;3.50;95270.00;;;;5032600;28;20424;-66
2022/12/10 02:57:38;;;;;;;5.00;3.47;;;2.30;99.90;3.70;95277.00;;;;5032672;28;20464;-64
2022/12/10 03:00:27;;;;;;;5.30;3.53;;;2.50;99.90;3.80;95276.00;;;;5030821;28;20428;-65
2022/12/10 03:03:29;;;;;;;5.63;4.67;;;2.40;99.90;3.80;95283.00;;;;5031150;28;20427;-65
2022/12/10 03:06:26;;;;;;;5.30;4.57;;;2.40;99.90;3.90;95284.00;;;;5019956;28;20439;-64
2022/12/10 03:09:21;;;;;;;5.43;3.93;;;2.50;99.90;3.90;95279.00;;;;5031397;28;20432;-65
2022/12/10 03:12:17;;;;;;;5.67;4.33;;;2.50;99.90;3.90;95278.00;;;;5032860;28;20428;-65
2022/12/10 03:15:10;;;;;;;9.60;4.20;;;2.50;99.90;3.80;95279.00;;;;5032283;28;20201;-64
2022/12/10 03:18:03;;;;;;;4.57;4.07;;;2.60;99.90;3.60;95273.00;;;;5031535;28;20455;-65
2022/12/10 03:20:59;;;;;;;6.40;4.17;;;2.50;99.90;3.50;95292.00;;;;5027953;28;20720;-65
2022/12/10 03:23:50;;;;;;;5.90;4.90;;;2.50;99.90;3.70;95299.00;;;;5023363;28;21009;-65
2022/12/10 03:26:41;;;;;;;4.67;3.97;;;2.50;99.90;3.70;95299.00;;;;5032345;28;20455;-65
2022/12/10 03:29:36;;;;;;;5.77;4.77;;;2.50;99.90;3.70;95300.00;;;;5023441;28;20451;-65
2022/12/10 03:32:28;;;;;;;7.43;4.07;;;2.50;99.90;3.50;95294.00;;;;5024522;28;20420;-65
2022/12/10 03:35:18;;;;;;;5.00;4.47;;;2.40;99.90;3.70;95297.00;;;;5027604;28;20221;-65
2022/12/10 03:38:07;;;;;;;8.07;4.40;;;2.40;99.90;3.70;95293.00;;;;5029603;28;20945;-64
2022/12/10 03:40:57;;;;;;;4.60;3.97;;;2.40;99.90;3.50;95302.00;;;;5031794;28;20436;-64
2022/12/10 03:43:55;;;;;;;3.83;3.53;;;2.40;99.90;3.30;95302.00;;;;5032275;28;20432;-65
2022/12/10 03:46:43;;;;;;;5.00;3.80;;;2.30;99.90;3.40;95302.00;;;;5030882;28;20463;-65
2022/12/10 03:49:32;;;;;;;5.60;4.10;;;2.40;99.90;3.40;95300.00;;;;5029486;28;20443;-65
2022/12/10 03:52:21;;;;;;;4.93;3.73;;;2.40;99.90;3.50;95308.00;;;;5030786;28;20432;-65
2022/12/10 03:55:11;;;;;;;5.63;3.70;;;2.40;99.90;3.50;95308.00;;;;5031577;28;20429;-65
2022/12/10 03:58:01;;;;;;;8.77;4.07;;;2.50;99.90;3.60;95310.00;;;;5018485;28;20440;-64
2022/12/10 04:00:49;;;;;;;5.43;3.77;;;2.40;99.90;3.80;95310.00;;;;5034236;28;20426;-65
2022/12/10 04:03:40;;;;;;;4.43;3.83;;;2.50;99.90;3.70;95303.00;;;;5025893;28;20425;-65
2022/12/10 04:06:29;;;;;;;4.53;4.03;;;2.50;99.90;3.70;95300.00;;;;5026674;28;20842;-65
2022/12/10 04:09:18;;;;;;;6.27;3.10;;;2.50;99.90;3.70;95303.00;;;;5027575;28;20439;-65
2022/12/10 04:12:07;;;;;;;3.93;3.63;;;2.50;99.90;3.80;95293.00;;;;5031795;28;20428;-65
2022/12/10 04:18:04;;;;;;;4.40;3.40;;;2.60;99.90;3.90;95301.00;;;;5013791;28;20456;-65
2022/12/10 04:27:09;;;;;;;4.17;3.17;;;2.70;99.90;3.80;95305.00;;;;5022113;28;20451;-65
2022/12/10 04:30:00;;;;;;;3.93;3.40;;;2.60;99.90;3.80;95299.00;;;;5031924;28;20486;-65
2022/12/10 04:32:49;;;;;;;4.67;3.90;;;2.70;99.90;3.90;95311.00;;;;5032841;28;20980;-65
2022/12/10 04:35:38;;;;;;;5.17;3.77;;;2.60;99.90;4.00;95307.00;;;;5033181;28;20455;-64
2022/12/10 04:38:27;;;;;;;6.03;3.70;;;2.70;99.90;3.90;95307.00;;;;5028390;28;20943;-64
2022/12/10 04:41:16;;;;;;;4.17;3.80;;;2.70;99.90;4.00;95325.00;;;;5031901;28;20424;-65
2022/12/10 04:44:05;;;;;;;4.50;3.70;;;2.70;99.90;4.10;95327.00;;;;5029307;28;20436;-64
2022/12/10 04:46:55;;;;;;;8.13;3.60;;;2.70;99.90;4.10;95317.00;;;;5032869;28;20473;-65
2022/12/10 04:49:43;;;;;;;7.00;3.83;;;2.70;99.90;4.10;95316.00;;;;5028865;28;20420;-65
2022/12/10 04:52:32;;;;;;;5.13;3.73;;;2.80;99.90;4.00;95322.00;;;;5029597;28;20428;-65
2022/12/10 04:55:21;;;;;;;6.03;3.93;;;2.80;99.90;3.90;95329.00;;;;5029715;28;20209;-65
2022/12/10 04:58:10;;;;;;;5.57;3.13;;;2.80;99.90;3.80;95334.00;;;;5029779;28;20448;-65
2022/12/10 05:01:03;;;;;;;4.03;3.63;;;2.80;99.90;3.70;95337.00;;;;5026177;28;20209;-65
2022/12/10 05:03:53;;;;;;;5.87;3.97;;;2.70;99.90;3.60;95349.00;;;;5020806;28;20256;-65
2022/12/10 05:06:43;;;;;;;6.27;4.20;;;2.60;99.90;3.90;95341.00;;;;5030185;28;20868;-65
2022/12/10 05:09:31;;;;;;;4.63;3.73;;;2.70;99.90;4.10;95348.00;;;;5018794;28;20413;-65
2022/12/10 05:12:20;;;;;;;3.50;3.20;;;2.70;99.90;4.10;95355.00;;;;5029469;28;20421;-65
2022/12/10 05:15:10;;;;;;;11.57;6.83;;;2.80;99.90;3.90;95354.00;;;;5033451;28;20431;-65
2022/12/10 05:17:59;;;;;;;6.83;5.77;;;2.80;99.90;3.90;95357.00;;;;5013452;28;20731;-65
2022/12/10 05:20:49;;;;;;;6.93;4.30;;;2.80;99.90;3.80;95363.00;;;;5019829;28;20708;-66
2022/12/10 05:23:39;;;;;;;4.77;3.53;;;2.80;99.90;3.90;95371.00;;;;5029278;28;20441;-65
2022/12/10 05:26:27;;;;;;;6.47;4.47;;;2.80;99.90;4.00;95367.00;;;;5020241;28;20473;-65
2022/12/10 05:29:16;;;;;;;4.47;3.70;;;2.80;99.90;4.10;95353.00;;;;5024936;28;20427;-65
2022/12/10 05:32:06;;;;;;;6.97;3.23;;;2.80;99.90;4.10;95355.00;;;;5029276;28;21011;-65
2022/12/10 05:34:54;;;;;;;4.03;2.80;;;2.80;99.90;4.10;95357.00;;;;5028075;28;20439;-65
2022/12/10 05:37:44;;;;;;;4.03;3.67;;;2.80;99.90;4.10;95346.00;;;;5021032;28;20445;-65
2022/12/10 05:40:35;;;;;;;4.03;3.50;;;2.90;99.90;4.00;95353.00;;;;5022070;28;20432;-65
2022/12/10 05:43:24;;;;;;;4.10;2.73;;;2.90;99.90;4.00;95359.00;;;;5018157;28;20201;-65
2022/12/10 05:46:18;;;;;;;4.50;3.67;;;2.90;99.90;4.20;95363.00;;;;5036310;28;20463;-66
2022/12/10 05:49:08;;;;;;;5.17;3.93;;;2.90;99.90;4.20;95357.00;;;;5016870;28;20503;-63
2022/12/10 05:51:57;;;;;;;4.13;3.53;;;2.90;99.90;4.20;95345.00;;;;5032559;28;20226;-65
2022/12/10 05:54:47;;;;;;;3.63;3.30;;;2.90;99.90;4.10;95348.00;;;;5017391;28;20416;-65
2022/12/10 05:57:37;;;;;;;4.10;3.73;;;2.90;99.90;4.20;95352.00;;;;5030011;28;20805;-65
2022/12/10 06:00:25;;;;;;;4.27;3.70;;;2.90;99.90;4.30;95360.00;;;;5031861;28;20200;-65
2022/12/10 06:03:15;;;;;;;3.40;3.07;;;2.90;99.90;4.40;95357.00;;;;5028004;28;20201;-64
2022/12/10 06:06:05;;;;;;;4.90;3.77;;;2.90;99.90;4.40;95340.00;;;;5020953;28;20228;-66
2022/12/10 06:08:54;;;;;;;3.63;3.33;;;3.00;99.90;4.40;95338.00;;;;5028365;28;20220;-65
2022/12/10 06:11:44;;;;;;;4.93;4.17;;;3.00;99.90;4.30;95349.00;;;;5029019;28;20201;-63
2022/12/10 06:14:33;;;;;;;3.63;3.30;;;3.00;99.90;4.40;95348.00;;;;5028773;28;20208;-65
2022/12/10 06:17:21;;;;;;;4.43;3.67;;;3.00;99.90;4.20;95347.00;;;;5029483;28;20228;-65
2022/12/10 06:20:12;;;;;;;6.43;4.03;;;3.00;99.90;4.10;95346.00;;;;5022481;28;20212;-66
2022/12/10 06:23:01;;;;;;;7.93;5.03;;;3.00;99.90;4.00;95343.00;;;;5016748;28;20436;-65
2022/12/10 06:25:49;;;;;;;5.93;5.30;;;3.00;99.90;4.00;95345.00;;;;5030503;28;20228;-65
2022/12/10 06:28:40;;;;;;;4.90;4.00;;;3.00;99.90;4.00;95350.00;;;;5028775;28;20688;-65
2022/12/10 06:31:29;;;;;;;4.93;4.07;;;2.90;99.90;4.20;95351.00;;;;5030251;28;20700;-64
2022/12/10 06:34:18;;;;;;;5.13;4.10;;;2.90;99.90;4.20;95338.00;;;;5033755;28;20439;-65
2022/12/10 06:37:06;;;;;;;6.47;5.07;;;3.00;99.90;4.30;95330.00;;;;5017024;28;20256;-65
2022/12/10 06:39:55;;;;;;;6.00;5.03;;;3.00;99.90;4.40;95332.00;;;;5027965;28;20424;-65
2022/12/10 06:42:44;;;;;;;6.33;5.13;;;3.00;99.90;4.30;95348.00;;;;5020395;28;20221;-65
2022/12/10 06:45:34;;;;;;;5.97;5.00;;;3.00;99.90;4.30;95344.00;;;;5025433;28;20198;-65
2022/12/10 06:48:23;;;;;;;8.93;4.83;;;3.00;99.90;4.40;95340.00;;;;5013527;28;20594;-65
2022/12/10 06:51:14;;;;;;;5.20;4.63;;;3.00;99.90;4.40;95331.00;;;;5023739;28;20219;-64
2022/12/10 06:54:02;;;;;;;5.60;4.70;;;3.00;99.90;4.40;95334.00;;;;5029045;28;20205;-65
2022/12/10 06:56:51;;;;;;;5.40;4.63;;;3.10;99.90;4.50;95334.00;;;;5032242;28;20229;-66
2022/12/10 06:59:40;;;;;;;11.27;5.47;;;3.10;99.90;4.40;95324.00;;;;5029429;28;20228;-64
2022/12/10 07:02:30;;;;;;;5.83;4.67;;;3.10;99.90;4.30;95331.00;;;;5023687;28;20206;-66
2022/12/10 07:05:20;;;;;;;5.77;5.20;;;3.10;99.90;4.30;95315.00;;;;5021383;28;20201;-65
2022/12/10 07:08:09;;;;;;;10.00;5.63;;;3.10;99.90;4.30;95328.00;;;;5030795;28;20704;-65
2022/12/10 07:10:58;;;;;;;8.93;5.57;;;3.00;99.90;4.10;95315.00;;;;5027706;28;20221;-65
2022/12/10 07:13:47;;;;;;;7.87;6.20;;;3.10;99.90;4.10;95325.00;;;;5021136;28;20197;-65
2022/12/10 07:16:35;;;;;;;8.17;5.43;;;3.10;99.90;4.10;95329.00;;;;5025505;28;20656;-65
2022/12/10 07:19:26;;;;;;;9.07;5.77;;;3.00;99.90;4.10;95320.00;;;;5022430;28;20206;-64
2022/12/10 07:22:14;;;;;;;10.80;6.83;;;3.00;99.90;4.20;95332.00;;;;5027192;28;20197;-65
2022/12/10 07:25:04;;;;;;;7.93;5.40;;;3.00;99.90;4.10;95333.00;;;;5022735;28;20219;-65
2022/12/10 07:27:52;;;;;;;5.47;4.43;;;3.00;99.90;4.30;95344.00;;;;5040662;28;20232;-65
2022/12/10 07:30:45;;;;;;;6.43;5.13;;;3.00;99.90;4.40;95332.00;;;;5043503;28;20203;-64
2022/12/10 07:33:34;;;;;;;8.77;6.13;;;3.10;99.90;4.50;95328.00;;;;5030096;28;20210;-65
2022/12/10 07:36:25;;;;;;;9.07;6.10;;;3.10;99.90;4.50;95334.00;;;;5025251;28;20232;-65
2022/12/10 07:39:17;;;;;;;9.97;5.37;;;3.10;99.90;4.60;95332.00;;;;5038087;28;20204;-65
2022/12/10 07:42:05;;;;;;;7.37;5.20;;;3.10;99.90;4.70;95333.00;;;;5032610;28;20193;-64
2022/12/10 07:44:54;;;;;;;9.07;6.43;;;3.20;99.90;4.70;95325.00;;;;5032233;28;20205;-65
2022/12/10 07:47:43;;;;;;;9.30;5.30;;;3.20;99.90;4.80;95332.00;;;;5029093;28;20607;-64
2022/12/10 07:50:32;;;;;;;7.87;5.97;;;3.30;99.90;4.70;95328.00;;;;5038306;28;20212;-65
2022/12/10 07:53:22;;;;;;;7.80;5.60;;;3.30;99.90;4.80;95333.00;;;;5024586;28;20205;-65
2022/12/10 07:56:12;;;;;;;7.30;6.50;;;3.30;99.90;4.90;95329.00;;;;5021332;28;20703;-65
2022/12/10 07:59:00;;;;;;;8.77;6.77;;;3.40;99.90;4.80;95326.00;;;;5028589;28;20193;-63
2022/12/10 08:01:49;;;;;;;9.60;7.00;;;3.40;99.90;4.80;95334.00;;;;5029117;28;20223;-65
2022/12/10 08:04:38;;;;;;;7.47;5.83;;;3.30;99.90;4.70;95322.00;;;;5030926;28;20205;-63
2022/12/10 08:07:27;;;;;;;8.67;5.93;;;3.40;99.90;4.80;95336.00;;;;5035053;28;20236;-65
2022/12/10 08:10:17;;;;;;;7.57;5.67;;;3.50;99.90;4.60;95331.00;;;;5027754;28;20205;-63
2022/12/10 08:13:07;;;;;;;7.53;6.07;;;3.50;99.90;4.60;95334.00;;;;5022973;28;20216;-64
2022/12/10 08:16:02;;;;;;;8.57;5.90;;;3.50;99.90;4.70;95348.00;;;;5032708;28;20201;-65
2022/12/10 08:18:50;;;;;;;9.13;7.10;;;3.50;99.90;4.90;95333.00;;;;5026798;28;20228;-64
2022/12/10 08:21:39;;;;;;;8.73;6.00;;;3.50;99.90;5.10;95339.00;;;;5020873;28;20239;-64
2022/12/10 08:24:28;;;;;;;8.43;6.70;;;3.50;99.90;5.10;95343.00;;;;5029050;28;20217;-64
2022/12/10 08:27:18;;;;;;;7.63;6.07;;;3.50;99.90;5.20;95353.00;;;;5030767;28;20734;-63
2022/12/10 08:30:08;;;;;;;10.63;7.57;;;3.60;99.90;5.10;95349.00;;;;5027043;28;20668;-64
2022/12/10 08:32:57;;;;;;;12.57;6.93;;;3.60;99.90;5.20;95353.00;;;;5032769;28;20244;-62
2022/12/10 08:35:46;;;;;;;8.13;7.10;;;3.70;99.90;5.20;95344.00;;;;5028708;28;20201;-65
2022/12/10 08:38:35;;;;;;;10.47;6.97;;;3.70;99.90;5.20;95364.00;;;;5025567;28;20201;-63
2022/12/10 08:41:24;;;;;;;8.13;6.57;;;3.70;99.90;5.10;95359.00;;;;5029548;28;20220;-64
2022/12/10 08:44:14;;;;;;;10.63;7.13;;;3.70;99.90;5.10;95366.00;;;;5026280;28;20201;-64
2022/12/10 08:47:03;;;;;;;10.63;6.67;;;3.70;99.90;5.10;95369.00;;;;5027733;28;20252;-65
2022/12/10 08:49:52;;;;;;;14.03;6.63;;;3.70;99.90;5.20;95372.00;;;;5020460;28;20209;-64
2022/12/10 08:52:41;;;;;;;11.67;7.80;;;3.70;99.90;5.10;95368.00;;;;5033637;28;20207;-64
2022/12/10 08:55:30;;;;;;;8.77;6.20;;;3.70;99.90;5.10;95369.00;;;;5038662;28;20203;-65
2022/12/10 08:58:19;;;;;;;8.10;6.57;;;3.70;99.90;5.10;95367.00;;;;5028328;28;20255;-64
2022/12/10 09:01:11;;;;;;;10.87;7.37;;;3.70;99.90;5.20;95368.00;;;;5029926;28;20232;-65
2022/12/10 09:04:00;;;;;;;11.73;6.53;;;3.70;99.90;5.20;95364.00;;;;5029729;28;20201;-64
2022/12/10 09:06:50;;;;;;;9.23;6.70;;;3.80;99.90;5.30;95365.00;;;;5029459;28;20224;-65
2022/12/10 09:09:39;;;;;;;10.30;6.30;;;3.80;99.90;5.30;95372.00;;;;5030143;28;20197;-65
2022/12/10 09:12:27;;;;;;;10.47;7.47;;;3.80;99.90;5.30;95368.00;;;;5021553;28;20216;-64
2022/12/10 09:15:16;;;;;;;7.33;6.13;;;3.80;99.90;5.30;95374.00;;;;5027243;28;20209;-65
2022/12/10 09:18:06;;;;;;;11.67;5.60;;;3.90;99.90;5.30;95364.00;;;;5025980;28;20727;-65
2022/12/10 09:20:55;;;;;;;9.97;7.17;;;3.80;99.90;5.30;95365.00;;;;5038607;28;20200;-65
2022/12/10 09:23:44;;;;;;;9.87;7.40;;;3.90;99.90;5.20;95366.00;;;;5024833;28;20256;-64
2022/12/10 09:26:33;;;;;;;12.43;7.80;;;3.90;99.90;5.10;95368.00;;;;5029304;28;20232;-64
2022/12/10 09:29:22;;;;;;;14.43;8.27;;;3.90;99.90;5.30;95361.00;;;;5033149;28;20712;-65
2022/12/10 09:32:10;;;;;;;11.37;9.00;;;3.90;99.90;5.30;95364.00;;;;5029987;28;20212;-65
2022/12/10 09:35:00;;;;;;;13.83;8.70;;;3.90;99.90;5.40;95354.00;;;;5022149;28;20570;-64
2022/12/10 09:37:49;;;;;;;11.43;9.33;;;4.00;99.90;5.30;95344.00;;;;5034636;28;20589;-65
2022/12/10 09:40:46;;;;;;;10.67;8.00;;;4.00;99.90;5.30;95338.00;;;;5031964;28;20193;-63
2022/12/10 09:43:47;;;;;;;13.77;9.00;;;4.00;99.90;5.20;95339.00;;;;5039229;28;20197;-65
2022/12/10 09:46:48;;;;;;;17.00;9.13;;;4.00;99.90;5.30;95336.00;;;;5015290;28;20218;-65
2022/12/10 09:49:51;;;;;;;21.47;9.10;;;4.00;99.90;5.40;95339.00;;;;5027105;28;20196;-65
2022/12/10 09:52:47;;;;;;;17.40;11.40;;;4.10;99.90;5.50;95332.00;;;;5022474;28;20201;-65
2022/12/10 09:55:39;;;;;;;13.13;9.17;;;4.10;99.90;5.50;95332.00;;;;5028244;28;20696;-64
2022/12/10 09:58:29;;;;;;;11.70;8.50;;;4.10;99.90;5.50;95339.00;;;;5026746;28;20201;-64
2022/12/10 10:01:23;;;;;;;14.93;9.13;;;4.10;99.90;5.50;95343.00;;;;5024379;28;20205;-65
2022/12/10 10:04:12;;;;;;;17.27;9.20;;;4.10;99.90;5.60;95341.00;;;;5030731;28;20216;-65
2022/12/10 10:07:01;;;;;;;12.47;8.80;;;4.10;99.90;5.60;95336.00;;;;5033892;28;20244;-63
2022/12/10 10:09:56;;;;;;;13.10;9.07;;;4.20;99.90;5.60;95331.00;;;;5027250;28;20224;-65
2022/12/10 10:12:45;;;;;;;12.00;7.00;;;4.20;99.90;5.60;95324.00;;;;5024056;28;20210;-65
2022/12/10 10:15:36;;;;;;;9.00;8.00;;;4.10;99.90;5.60;95312.00;;;;5028820;28;20197;-65
2022/12/10 10:18:36;;;;;;;20.20;7.77;;;4.10;99.90;5.60;95310.00;;;;5026326;28;20209;-64
2022/12/10 10:21:28;;;;;;;10.47;7.13;;;4.10;99.90;5.50;95310.00;;;;5032549;28;20206;-65
2022/12/10 10:24:20;;;;;;;10.40;7.90;;;4.10;99.90;5.50;95305.00;;;;5012645;28;20869;-65
2022/12/10 10:27:16;;;;;;;14.63;8.37;;;4.10;99.90;5.40;95296.00;;;;5027893;28;20815;-65
2022/12/10 10:30:15;;;;;;;12.27;7.37;;;4.20;99.90;5.40;95298.00;;;;5020743;28;20209;-65
2022/12/10 10:33:10;;;;;;;12.10;7.33;;;4.10;99.90;5.50;95297.00;;;;5034210;28;20209;-64
2022/12/10 10:36:00;;;;;;;12.57;7.27;;;4.10;99.90;5.60;95289.00;;;;5028926;28;20205;-64
2022/12/10 10:38:49;;;;;;;13.00;7.37;;;4.10;99.90;5.50;95275.00;;;;5026427;28;20213;-64
2022/12/10 10:41:40;;;;;;;9.00;7.77;;;4.20;99.90;5.60;95268.00;;;;5030163;28;20213;-63
2022/12/10 10:44:38;;;;;;;20.73;13.90;;;4.20;99.90;5.40;95274.00;;;;5032223;28;20209;-65
2022/12/10 10:47:31;;;;;;;13.73;12.20;;;4.20;99.90;5.40;95266.00;;;;5029432;28;20233;-65
2022/12/10 10:50:26;;;;;;;17.30;15.50;;;4.20;99.90;5.50;95256.00;;;;5025352;28;20196;-65
2022/12/10 10:53:33;;;;;;;16.93;12.33;;;4.10;99.90;5.70;95266.00;;;;5025691;28;20205;-64
2022/12/10 10:56:25;;;;;;;13.10;10.13;;;4.20;99.90;5.70;95256.00;;;;5028178;28;20220;-65
2022/12/10 10:59:32;;;;;;;10.60;9.00;;;4.20;99.90;5.80;95260.00;;;;5026128;28;20993;-65
2022/12/10 11:02:26;;;;;;;9.87;8.60;;;4.30;99.90;5.80;95262.00;;;;5018348;28;20679;-65
2022/12/10 11:05:22;;;;;;;12.13;8.33;;;4.20;99.90;5.70;95252.00;;;;5032471;28;20209;-65
2022/12/10 11:08:18;;;;;;;12.17;9.13;;;4.30;99.90;5.80;95248.00;;;;5030502;28;20632;-63
2022/12/10 11:11:14;;;;;;;12.07;9.23;;;4.30;99.90;5.80;95252.00;;;;5025210;28;20209;-64
2022/12/10 11:14:22;;;;;;;9.77;7.37;;;4.30;99.90;5.80;95256.00;;;;5030380;28;20197;-65
2022/12/10 11:17:20;;;;;;;11.47;8.13;;;4.30;99.90;5.80;95242.00;;;;5027866;28;20646;-64
2022/12/10 11:20:19;;;;;;;13.40;7.43;;;4.40;99.90;5.80;95244.00;;;;5025437;28;20225;-65
2022/12/10 11:23:11;;;;;;;11.17;8.77;;;4.40;99.90;5.80;95238.00;;;;5020513;28;20194;-65
2022/12/10 11:26:23;;;;;;;13.07;8.73;;;4.40;99.90;5.70;95237.00;;;;5030905;28;20198;-65
2022/12/10 11:29:29;;;;;;;12.03;7.87;;;4.30;99.90;5.60;95236.00;;;;5028359;28;20229;-64
2022/12/10 11:32:58;;;;;;;14.37;8.23;;;4.30;99.90;5.70;95242.00;;;;5028867;28;20205;-65
2022/12/10 11:36:01;;;;;;;12.67;9.17;;;4.30;99.90;5.70;95226.00;;;;5024244;28;20202;-65
2022/12/10 11:38:57;;;;;;;13.47;8.77;;;4.30;99.90;5.80;95228.00;;;;5029831;28;20212;-64
2022/12/10 11:41:54;;;;;;;15.03;8.17;;;4.30;99.90;5.80;95234.00;;;;5030004;28;20202;-65
2022/12/10 11:44:51;;;;;;;12.53;8.97;;;4.30;99.90;5.80;95231.00;;;;5028995;28;20209;-65
2022/12/10 11:47:55;;;;;;;13.60;8.20;;;4.30;99.90;5.90;95228.00;;;;5025178;28;20232;-65
2022/12/10 11:50:48;;;;;;;12.30;8.83;;;4.30;99.90;5.90;95223.00;;;;5021589;28;20204;-64
2022/12/10 11:53:58;;;;;;;10.97;8.47;;;4.30;99.90;5.90;95220.00;;;;5029370;28;20217;-64
2022/12/10 11:56:54;;;;;;;15.87;9.33;;;4.40;99.90;6.00;95222.00;;;;5022424;28;20228;-65
2022/12/10 11:59:51;;;;;;;10.90;8.00;;;4.40;99.90;6.10;95220.00;;;;5023801;28;20255;-65
2022/12/10 12:03:35;;;;;;;13.17;8.17;;;4.50;99.90;6.00;95213.00;;;;5028696;28;20211;-65
2022/12/10 12:06:43;;;;;;;11.63;7.27;;;4.50;99.90;5.90;95206.00;;;;5025857;28;20232;-65
2022/12/10 12:09:50;;;;;;;11.87;8.17;;;4.50;99.90;5.80;95208.00;;;;5024268;28;20216;-65
2022/12/10 12:12:47;;;;;;;12.90;9.63;;;4.50;99.90;5.60;95212.00;;;;5028424;28;20216;-65
2022/12/10 12:15:43;;;;;;;11.53;8.37;;;4.50;99.90;5.90;95210.00;;;;5028273;28;20695;-65
2022/12/10 12:18:44;;;;;;;9.93;7.60;;;4.50;99.90;6.10;95225.00;;;;5026595;28;20213;-65
2022/12/10 12:21:33;;;;;;;10.20;7.83;;;4.50;99.90;5.90;95215.00;;;;5027393;28;20205;-65
2022/12/10 12:24:30;;;;;;;11.07;8.17;;;4.50;99.90;6.00;95218.00;;;;5020196;28;20205;-65
2022/12/10 12:27:28;;;;;;;11.00;8.43;;;4.60;99.90;6.00;95216.00;;;;5027677;28;20236;-65
2022/12/10 12:30:20;;;;;;;10.30;8.47;;;4.60;99.90;6.10;95215.00;;;;5023982;28;20225;-65
2022/12/10 12:33:15;;;;;;;14.80;7.23;;;4.60;99.90;6.10;95219.00;;;;5027573;28;20213;-64
2022/12/10 12:36:12;;;;;;;11.47;8.20;;;4.60;99.90;6.10;95218.00;;;;5024442;28;20206;-65
2022/12/10 12:39:08;;;;;;;8.77;6.60;;;4.60;99.90;6.10;95223.00;;;;5023568;28;20198;-65
2022/12/10 12:42:04;;;;;;;11.97;9.23;;;4.60;99.90;6.10;95221.00;;;;5027960;28;20208;-65
2022/12/10 12:45:03;;;;;;;11.30;8.67;;;5.00;99.90;6.00;95225.00;;;;5026948;28;20210;-65
2022/12/10 12:48:06;;;;;;;14.60;10.37;;;4.60;99.90;5.90;95230.00;;;;5029341;28;20237;-65
2022/12/10 12:51:00;;;;;;;12.07;10.67;;;4.60;99.90;6.00;95228.00;;;;5020749;28;20204;-64
2022/12/10 12:53:50;;;;;;;10.30;8.83;;;4.60;99.90;6.00;95224.00;;;;5031102;28;20198;-65
2022/12/10 12:57:04;;;;;;;12.10;8.17;;;4.50;99.90;6.00;95231.00;;;;5028743;28;20224;-65
2022/12/10 13:00:02;;;;;;;9.90;7.83;;;4.50;99.90;6.00;95220.00;;;;5024263;28;20213;-64
2022/12/10 13:03:01;;;;;;;11.20;8.20;;;4.50;99.90;6.00;95204.00;;;;5029752;28;20222;-64
2022/12/10 13:05:51;;;;;;;12.60;8.37;;;4.50;99.90;6.10;95212.00;;;;5029489;28;20197;-63
2022/12/10 13:08:45;;;;;;;12.27;6.93;;;4.50;99.90;6.10;95198.00;;;;5018653;28;20290;-63